Aérodrome :
LOGIN :

S'inscrire | Disclaimer

   EN    FR    IT 

 










Légende :    VFR   VFR Marginal   IFR   IFR Intensif   IFR Très Intensif
Visi : 
Plafond : 
>= 8 km
>= 3000ft
5 à 8 km
1000 à 3000 ft
1500m à 5 km
500 à 1000 ft
800 à 1500m
200 à 500 ft
< 800m
< 200 ft
Symboles :   Orages  Brouillard  Fortes neiges  Fortes précipitations  Vent > 20 kt
SIGMETs :   Divers  Orages  Givrage  Turbulence  Onde Orograph.  Cendres Volcan.







- Altitude de l'aérodrome : 47 ft
- Code IATA : BDS


LIBR - Casale Arpt. Brindisi

DERNIER METAR :
  • 151115Z 15014KT 9999 FEW020 14/12 Q1011 NOSIG

METARs EXPIRÉS :
  • 151045Z 17012KT 9999 FEW020 14/12 Q1012 NOSIG
  • 151015Z 16015KT 9999 FEW020 14/12 Q1012 NOSIG
  • 150945Z 16015KT 9999 FEW025 14/12 Q1012 NOSIG
  • 150915Z 16011KT 9999 FEW025 13/11 Q1013 NOSIG
  • 150845Z 16011KT 9999 FEW025 13/11 Q1013 NOSIG

TAF TAF LIBR
Valide du 15 à 12h jusqu'au 16 à 12h UTC


151100Z 1512/1612 18015KT 9999 SCT020
TEMPO 1520/1606 18017G27KT
TEMPO 1604/1608 RA BKN020
Pas de NOTAMs connus pour ce terrain.
1 SIGMET publié pour la FIR Brindisi (LIBB) :
 
Onde orographique forte
LIBB SIGMET 4 VALID 151100/151300 LIIB
LIBB BRINDISI FIR SEV MTW FCST WI N4325 E01327 - N4255 E01304 - N4125 E01430 - N4104 E01516 - N3949 E01601 - N4151 E01721 - N4325 E01422 - N4325 E01327 FL020/100 STNR NC=



MET'MAP, la Météo Aéronautique d'un coup d'oeil ! - Copyright ORBIFLY Décembre 2007 - Disclaimer

ORBIFLY MET'MAP TEAM :

Programmation & Développement : Alexandra Zaïnal
Conception & Développement : Baudouin d'Aumeries
Co-Programmation & Développement : Marc-Olivier Méhu
Soutien technique & logistique : Manuel Goepfert

Contact : metmap@orbifly.com




SOURCES & CREDITS :

   NOAA